createdAt,value
2022-11-26T00:02:29.340Z,5.63
2022-11-26T00:04:57.226Z,5.66
2022-11-26T00:07:26.850Z,5.58
2022-11-26T00:09:54.794Z,5.53
2022-11-26T00:12:29.878Z,5.66
2022-11-26T00:14:56.934Z,5.59
2022-11-26T00:17:23.866Z,5.52
2022-11-26T00:19:50.880Z,5.57
2022-11-26T00:22:25.812Z,5.71
2022-11-26T00:24:53.144Z,5.61
2022-11-26T00:27:20.095Z,5.62
2022-11-26T00:29:47.104Z,5.69
2022-11-26T00:32:18.150Z,5.61
2022-11-26T00:34:45.184Z,5.61
2022-11-26T00:37:35.834Z,5.50
2022-11-26T00:40:02.852Z,5.56
2022-11-26T00:42:29.775Z,5.65
2022-11-26T00:44:56.727Z,5.60
2022-11-26T00:47:23.722Z,5.66
2022-11-26T00:49:50.797Z,5.51
2022-11-26T00:52:33.646Z,5.70
2022-11-26T00:55:01.888Z,5.54
2022-11-26T00:57:28.787Z,5.58
2022-11-26T00:59:55.814Z,5.69
2022-11-26T01:02:22.849Z,5.57
2022-11-26T01:04:49.876Z,5.55
2022-11-26T01:07:16.836Z,5.59
2022-11-26T01:09:44.294Z,5.57
2022-11-26T01:12:14.606Z,5.56
2022-11-26T01:14:41.633Z,5.71
2022-11-26T01:17:11.176Z,5.67
2022-11-26T01:19:38.155Z,5.59
2022-11-26T01:22:05.110Z,5.70
2022-11-26T01:24:37.848Z,5.56
2022-11-26T01:27:09.317Z,5.63
2022-11-26T01:29:36.308Z,5.56
2022-11-26T01:32:03.375Z,5.56
2022-11-26T01:34:30.442Z,5.59
2022-11-26T01:36:57.488Z,5.49
2022-11-26T01:39:25.059Z,5.58
2022-11-26T01:42:00.944Z,5.72
2022-11-26T01:44:29.891Z,5.62
2022-11-26T01:46:57.236Z,5.71
2022-11-26T01:49:25.253Z,5.54
2022-11-26T01:51:59.443Z,5.68
2022-11-26T01:54:26.433Z,5.55
2022-11-26T01:56:54.811Z,5.72
2022-11-26T01:59:29.880Z,5.60
2022-11-26T02:01:58.176Z,5.54
2022-11-26T02:04:28.801Z,5.73
2022-11-26T02:06:56.362Z,5.63
2022-11-26T02:09:23.925Z,5.56
2022-11-26T02:11:50.857Z,5.54
2022-11-26T02:14:20.114Z,5.64
2022-11-26T02:17:24.582Z,5.71
2022-11-26T02:20:03.727Z,5.65
2022-11-26T02:22:51.364Z,5.71
2022-11-26T02:25:44.459Z,5.70
2022-11-26T02:28:48.009Z,5.69
2022-11-26T02:31:26.244Z,5.69
2022-11-26T02:34:15.633Z,5.58
2022-11-26T02:37:04.437Z,5.70
2022-11-26T02:39:31.901Z,5.68
2022-11-26T02:42:00.434Z,5.60
2022-11-26T02:44:54.590Z,5.70
2022-11-26T02:47:21.863Z,5.70
2022-11-26T02:49:48.853Z,5.59
2022-11-26T02:52:15.912Z,5.61
2022-11-26T02:54:42.983Z,5.75
2022-11-26T02:57:12.179Z,5.66
2022-11-26T02:59:39.143Z,5.70
2022-11-26T03:02:25.114Z,5.74
2022-11-26T03:04:53.587Z,5.64
2022-11-26T03:07:20.573Z,5.76
2022-11-26T03:09:58.291Z,5.62
2022-11-26T03:12:25.356Z,5.58
2022-11-26T03:14:52.332Z,5.64
2022-11-26T03:17:19.352Z,5.62
2022-11-26T03:19:46.657Z,5.71
2022-11-26T03:22:14.049Z,5.75
2022-11-26T03:24:41.455Z,5.67
2022-11-26T03:27:08.496Z,5.64
2022-11-26T03:29:35.499Z,5.65
2022-11-26T03:32:02.525Z,5.74
2022-11-26T03:34:29.561Z,5.71
2022-11-26T03:36:56.569Z,5.70
2022-11-26T03:39:23.622Z,5.82
2022-11-26T03:41:50.529Z,5.83
2022-11-26T03:44:17.602Z,5.74
2022-11-26T03:46:44.562Z,5.72
2022-11-26T03:49:11.662Z,5.85
2022-11-26T03:51:38.619Z,5.71
2022-11-26T03:54:05.627Z,5.72
2022-11-26T03:56:32.591Z,5.75
2022-11-26T03:58:59.592Z,5.87
2022-11-26T04:01:26.576Z,5.86
2022-11-26T04:03:53.602Z,5.74
2022-11-26T04:06:20.783Z,5.82
2022-11-26T04:08:47.778Z,5.73
2022-11-26T04:11:14.739Z,5.90
2022-11-26T04:13:41.873Z,5.78
2022-11-26T04:16:09.078Z,5.86
2022-11-26T04:18:36.247Z,5.90
2022-11-26T04:21:04.340Z,5.76
2022-11-26T04:23:31.325Z,5.90
2022-11-26T04:25:58.272Z,5.81
2022-11-26T04:28:25.256Z,5.88
2022-11-26T04:30:52.303Z,5.76
2022-11-26T04:33:19.236Z,5.91
2022-11-26T04:35:46.224Z,5.78
2022-11-26T04:38:13.172Z,5.92
2022-11-26T04:40:40.207Z,5.77
2022-11-26T04:43:07.263Z,5.79
2022-11-26T04:45:34.266Z,5.73
2022-11-26T04:48:01.413Z,5.80
2022-11-26T04:50:28.625Z,5.77
2022-11-26T04:52:55.749Z,5.77
2022-11-26T04:55:22.790Z,5.72
2022-11-26T04:57:49.922Z,5.82
2022-11-26T05:00:17.613Z,5.87
2022-11-26T05:02:44.899Z,5.91
2022-11-26T05:05:12.328Z,5.95
2022-11-26T05:07:39.332Z,5.84
2022-11-26T05:10:07.553Z,5.81
2022-11-26T05:12:34.871Z,5.80
2022-11-26T05:15:02.992Z,5.86
2022-11-26T05:17:30.050Z,5.84
2022-11-26T05:19:57.030Z,5.91
2022-11-26T05:22:24.000Z,5.78
2022-11-26T05:24:50.985Z,5.83
2022-11-26T05:27:17.943Z,5.78
2022-11-26T05:29:44.974Z,5.77
2022-11-26T05:32:12.226Z,5.78
2022-11-26T05:34:39.318Z,5.81
2022-11-26T05:37:06.419Z,5.78
2022-11-26T05:39:33.412Z,5.78
2022-11-26T05:42:03.575Z,5.86
2022-11-26T05:44:33.396Z,5.92
2022-11-26T05:47:00.310Z,5.76
2022-11-26T05:49:27.329Z,5.79
2022-11-26T05:51:54.330Z,5.94
2022-11-26T05:54:21.477Z,5.90
2022-11-26T05:56:48.391Z,5.86
2022-11-26T05:59:15.414Z,5.82
2022-11-26T06:01:42.356Z,5.81
2022-11-26T06:04:09.322Z,5.98
2022-11-26T06:06:36.304Z,5.86
2022-11-26T06:09:03.597Z,5.88
2022-11-26T06:11:30.743Z,5.84
2022-11-26T06:13:57.681Z,5.95
2022-11-26T06:16:24.723Z,5.92
2022-11-26T06:18:51.789Z,5.88
2022-11-26T06:21:19.454Z,5.87
2022-11-26T06:23:54.266Z,5.99
2022-11-26T06:26:24.902Z,5.81
2022-11-26T06:28:51.921Z,5.98
2022-11-26T06:31:19.074Z,5.85
2022-11-26T06:33:46.149Z,5.90
2022-11-26T06:36:13.176Z,5.85
2022-11-26T06:38:40.235Z,5.91
2022-11-26T06:41:08.199Z,5.92
2022-11-26T06:43:35.607Z,6.05
2022-11-26T06:46:07.875Z,5.90
2022-11-26T06:48:35.429Z,5.90
2022-11-26T06:51:11.483Z,6.04
2022-11-26T06:53:38.627Z,5.99
2022-11-26T06:56:07.583Z,5.96
2022-11-26T06:58:34.713Z,5.98
2022-11-26T07:01:10.943Z,5.96
2022-11-26T07:03:38.604Z,5.88
2022-11-26T07:06:05.823Z,5.91
2022-11-26T07:08:32.944Z,6.04
2022-11-26T07:11:03.803Z,6.01
2022-11-26T07:13:31.175Z,6.09
2022-11-26T07:16:03.045Z,6.10
2022-11-26T07:18:30.086Z,6.07
2022-11-26T07:20:57.364Z,6.07
2022-11-26T07:23:24.953Z,6.04
2022-11-26T07:25:52.060Z,6.01
2022-11-26T07:28:19.146Z,6.05
2022-11-26T07:30:46.348Z,6.02
2022-11-26T07:33:13.551Z,6.10
2022-11-26T07:35:40.498Z,6.02
2022-11-26T07:38:07.449Z,6.07
2022-11-26T07:40:34.462Z,6.19
2022-11-26T07:43:01.420Z,6.18
2022-11-26T07:45:30.447Z,6.23
2022-11-26T07:48:00.658Z,6.09
2022-11-26T07:50:34.309Z,6.17
2022-11-26T07:53:16.080Z,6.25
2022-11-26T07:55:44.404Z,6.24
2022-11-26T07:58:12.581Z,6.15
2022-11-26T08:00:44.183Z,6.22
2022-11-26T08:03:11.470Z,6.27
2022-11-26T08:05:42.635Z,6.29
2022-11-26T08:08:12.544Z,6.18
2022-11-26T08:10:40.679Z,6.22
2022-11-26T08:13:10.713Z,6.30
2022-11-26T08:15:37.947Z,6.21
2022-11-26T08:18:07.252Z,6.21
2022-11-26T08:20:35.429Z,6.22
2022-11-26T08:23:07.266Z,6.26
2022-11-26T08:25:35.886Z,6.23
2022-11-26T08:28:06.534Z,6.28
2022-11-26T08:30:34.664Z,6.24
2022-11-26T08:33:09.422Z,6.37
2022-11-26T08:36:05.645Z,6.41
2022-11-26T08:38:27.717Z,6.32
2022-11-26T08:40:56.971Z,6.31
2022-11-26T08:43:34.658Z,6.36
2022-11-26T08:46:44.436Z,6.47
2022-11-26T08:49:15.210Z,6.39
2022-11-26T08:51:43.596Z,6.37
2022-11-26T08:54:26.493Z,6.35
2022-11-26T08:57:24.610Z,6.31
2022-11-26T09:00:00.349Z,6.52
2022-11-26T09:02:31.086Z,6.34
2022-11-26T09:05:10.415Z,6.33
2022-11-26T09:07:59.366Z,6.44
2022-11-26T09:18:38.155Z,6.53
2022-11-26T09:20:57.121Z,6.31
2022-11-26T09:24:20.882Z,6.38
2022-11-26T09:30:19.703Z,6.39
2022-11-26T09:32:47.214Z,6.41
2022-11-26T09:35:36.319Z,6.47
2022-11-26T09:39:33.918Z,6.41
2022-11-26T09:49:58.334Z,6.38
2022-11-26T09:52:32.844Z,6.48
2022-11-26T09:55:15.647Z,6.50
2022-11-26T09:57:44.899Z,6.59
2022-11-26T10:00:37.368Z,6.58
2022-11-26T10:03:14.854Z,6.59
2022-11-26T10:09:06.240Z,6.77
2022-11-26T10:13:03.436Z,6.59
2022-11-26T10:14:50.831Z,6.79
2022-11-26T10:18:31.150Z,6.79
2022-11-26T10:22:24.468Z,6.63
2022-11-26T10:29:09.397Z,6.69
2022-11-26T10:34:11.839Z,6.63
2022-11-26T10:59:38.745Z,6.84
2022-11-26T11:01:09.109Z,6.87
2022-11-26T11:04:11.951Z,6.96
2022-11-26T11:06:42.721Z,7.02
2022-11-26T11:09:42.867Z,6.98
2022-11-26T11:24:06.984Z,7.02
2022-11-26T11:28:49.163Z,7.11
2022-11-26T11:31:40.580Z,7.27
2022-11-26T11:40:26.943Z,7.10
2022-11-26T11:54:12.234Z,7.10
2022-11-26T11:56:46.097Z,7.40
2022-11-26T11:59:41.371Z,7.43
2022-11-26T12:02:39.057Z,7.35
2022-11-26T12:05:34.366Z,7.43
2022-11-26T12:08:41.283Z,7.44
2022-11-26T12:11:40.868Z,7.31
2022-11-26T12:14:46.261Z,7.26
2022-11-26T12:17:33.083Z,7.42
2022-11-26T12:20:27.672Z,7.30
2022-11-26T12:23:30.292Z,7.38
2022-11-26T12:26:28.572Z,7.32
2022-11-26T12:29:26.610Z,7.44
2022-11-26T12:33:42.043Z,7.27
2022-11-26T12:39:23.361Z,7.33
2022-11-26T12:42:51.300Z,7.35
2022-11-26T12:45:54.480Z,7.57
2022-11-26T12:48:33.034Z,7.46
2022-11-26T12:51:32.617Z,7.42
2022-11-26T12:54:23.413Z,7.65
2022-11-26T12:57:11.309Z,7.64
2022-11-26T13:00:00.090Z,7.67
2022-11-26T13:02:35.414Z,7.51
2022-11-26T13:05:02.725Z,7.56
2022-11-26T13:07:57.462Z,7.72
2022-11-26T13:10:32.209Z,7.56
2022-11-26T13:13:08.198Z,7.75
2022-11-26T13:15:42.236Z,7.66
2022-11-26T13:18:24.046Z,7.70
2022-11-26T13:21:35.946Z,7.55
2022-11-26T13:24:17.434Z,7.76
2022-11-26T13:27:22.990Z,7.76
2022-11-26T13:30:02.091Z,7.75
2022-11-26T13:32:38.310Z,7.78
2022-11-26T13:35:20.249Z,7.79
2022-11-26T13:38:10.488Z,7.81
2022-11-26T13:40:58.867Z,7.73
2022-11-26T13:43:26.135Z,7.80
2022-11-26T13:45:58.804Z,7.83
2022-11-26T13:48:52.398Z,7.80
2022-11-26T13:51:27.633Z,7.81
2022-11-26T13:53:59.172Z,7.77
2022-11-26T13:56:32.403Z,7.69
2022-11-26T13:59:08.853Z,7.65
2022-11-26T14:01:40.479Z,7.81
2022-11-26T14:04:09.021Z,7.73
2022-11-26T14:06:36.967Z,7.76
2022-11-26T14:09:06.959Z,7.78
2022-11-26T14:11:54.642Z,7.90
2022-11-26T14:14:29.416Z,7.93
2022-11-26T14:17:00.844Z,7.93
2022-11-26T14:19:40.423Z,7.92
2022-11-26T14:22:08.788Z,7.93
2022-11-26T14:24:53.383Z,7.93
2022-11-26T14:27:31.028Z,7.84
2022-11-26T14:30:07.061Z,7.94
2022-11-26T14:33:04.042Z,7.81
2022-11-26T14:35:34.386Z,7.92
2022-11-26T14:38:03.616Z,7.76
2022-11-26T14:40:37.979Z,7.84
2022-11-26T14:43:11.247Z,7.81
2022-11-26T14:45:38.336Z,7.87
2022-11-26T14:48:05.635Z,7.80
2022-11-26T14:50:33.339Z,7.93
2022-11-26T14:53:03.568Z,7.85
2022-11-26T14:55:31.167Z,7.96
2022-11-26T14:58:08.643Z,7.85
2022-11-26T15:00:40.139Z,7.81
2022-11-26T15:03:27.911Z,7.80
2022-11-26T15:05:54.951Z,7.77
2022-11-26T15:08:24.391Z,7.85
2022-11-26T15:14:03.926Z,7.82
2022-11-26T15:20:42.946Z,7.62
2022-11-26T15:23:26.853Z,7.69
2022-11-26T15:26:00.192Z,7.78
2022-11-26T15:28:42.555Z,7.71
2022-11-26T15:31:10.209Z,7.76
2022-11-26T15:33:38.077Z,7.81
2022-11-26T15:36:06.038Z,7.88
2022-11-26T15:38:34.357Z,7.82
2022-11-26T15:41:06.970Z,7.72
2022-11-26T15:43:47.824Z,7.86
2022-11-26T15:46:19.337Z,7.79
2022-11-26T15:48:59.894Z,7.75
2022-11-26T15:51:35.507Z,7.66
2022-11-26T15:54:16.320Z,7.75
2022-11-26T15:56:43.355Z,7.82
2022-11-26T15:59:31.842Z,7.77
2022-11-26T16:05:51.586Z,7.80
2022-11-26T16:08:32.063Z,7.80
2022-11-26T16:11:11.970Z,7.61
2022-11-26T16:13:41.775Z,7.60
2022-11-26T16:16:29.285Z,7.81
2022-11-26T16:19:00.488Z,7.59
2022-11-26T16:21:29.752Z,7.60
2022-11-26T16:23:59.761Z,7.82
2022-11-26T16:26:27.157Z,7.69
2022-11-26T16:28:54.249Z,7.76
2022-11-26T16:31:21.473Z,7.68
2022-11-26T16:33:48.601Z,7.68
2022-11-26T16:36:22.344Z,7.81
2022-11-26T16:38:49.195Z,7.60
2022-11-26T16:41:17.333Z,7.62
2022-11-26T16:43:44.608Z,7.69
2022-11-26T16:46:18.993Z,7.70
2022-11-26T16:48:46.253Z,7.60
2022-11-26T16:51:13.277Z,7.63
2022-11-26T16:53:40.217Z,7.62
2022-11-26T16:56:07.707Z,7.73
2022-11-26T16:58:35.765Z,7.83
2022-11-26T17:01:02.737Z,7.82
2022-11-26T17:03:33.278Z,7.82
2022-11-26T17:06:02.643Z,7.67
2022-11-26T17:08:30.246Z,7.70
2022-11-26T17:10:57.609Z,7.69
2022-11-26T17:13:25.479Z,7.60
2022-11-26T17:15:54.727Z,7.66
2022-11-26T17:18:25.540Z,7.74
2022-11-26T17:20:53.366Z,7.69
2022-11-26T17:23:20.361Z,7.68
2022-11-26T17:25:51.564Z,7.66
2022-11-26T17:28:18.569Z,7.70
2022-11-26T17:30:47.500Z,7.68
2022-11-26T17:33:14.527Z,7.53
2022-11-26T17:35:47.224Z,7.69
2022-11-26T17:38:18.198Z,7.56
2022-11-26T17:40:46.466Z,7.70
2022-11-26T17:43:17.284Z,7.63
2022-11-26T17:45:44.362Z,7.67
2022-11-26T17:48:17.295Z,7.72
2022-11-26T17:50:57.524Z,7.63
2022-11-26T17:53:24.632Z,7.68
2022-11-26T17:55:53.624Z,7.60
2022-11-26T17:58:20.806Z,7.58
2022-11-26T18:00:47.760Z,7.64
2022-11-26T18:03:14.780Z,7.55
2022-11-26T18:05:42.467Z,7.60
2022-11-26T18:08:10.826Z,7.74
2022-11-26T18:10:39.613Z,7.76
2022-11-26T18:13:06.720Z,7.66
2022-11-26T18:15:33.881Z,7.67
2022-11-26T18:18:00.934Z,7.59
2022-11-26T18:20:28.339Z,7.65
2022-11-26T18:22:57.087Z,7.63
2022-11-26T18:25:24.300Z,7.76
2022-11-26T18:27:51.898Z,7.75
2022-11-26T18:30:19.408Z,7.76
2022-11-26T18:32:46.418Z,7.77
2022-11-26T18:35:13.685Z,7.74
2022-11-26T18:37:40.881Z,7.63
2022-11-26T18:40:09.202Z,7.77
2022-11-26T18:42:37.885Z,7.57
2022-11-26T18:45:07.112Z,7.76
2022-11-26T18:47:35.221Z,7.78
2022-11-26T18:50:04.912Z,7.55
2022-11-26T18:52:31.894Z,7.58
2022-11-26T18:55:00.140Z,7.63
2022-11-26T18:57:27.714Z,7.78
2022-11-26T18:59:54.809Z,7.70
2022-11-26T19:02:21.900Z,7.68
2022-11-26T19:04:49.072Z,7.64
2022-11-26T19:07:16.129Z,7.77
2022-11-26T19:09:43.481Z,7.55
2022-11-26T19:12:12.604Z,7.67
2022-11-26T19:14:39.655Z,7.71
2022-11-26T19:17:06.679Z,7.63
2022-11-26T19:19:33.779Z,7.69
2022-11-26T19:22:01.824Z,7.65
2022-11-26T19:24:29.823Z,7.58
2022-11-26T19:26:57.380Z,7.64
2022-11-26T19:29:24.460Z,7.66
2022-11-26T19:31:51.456Z,7.69
2022-11-26T19:34:18.523Z,7.85
2022-11-26T19:36:48.768Z,7.68
2022-11-26T19:39:16.190Z,7.65
2022-11-26T19:41:43.382Z,7.66
2022-11-26T19:44:10.439Z,7.86
2022-11-26T19:46:41.099Z,7.77
2022-11-26T19:49:11.050Z,7.78
2022-11-26T19:51:37.965Z,7.77
2022-11-26T19:54:05.232Z,7.74
2022-11-26T19:56:32.404Z,7.76
2022-11-26T19:59:00.742Z,7.77
2022-11-26T20:01:30.688Z,7.71
2022-11-26T20:03:59.565Z,7.67
2022-11-26T20:06:27.319Z,7.71
2022-11-26T20:08:54.678Z,7.67
2022-11-26T20:11:22.057Z,7.68
2022-11-26T20:13:49.177Z,7.74
2022-11-26T20:16:21.125Z,7.78
2022-11-26T20:18:48.273Z,7.67
2022-11-26T20:21:19.834Z,7.66
2022-11-26T20:23:47.195Z,7.81
2022-11-26T20:26:18.152Z,7.81
2022-11-26T20:28:45.369Z,7.70
2022-11-26T20:31:13.022Z,7.70
2022-11-26T20:33:40.040Z,7.66
2022-11-26T20:36:08.401Z,7.70
2022-11-26T20:38:35.674Z,7.68
2022-11-26T20:41:09.858Z,7.76
2022-11-26T20:43:36.991Z,7.71
2022-11-26T20:46:05.457Z,7.68
2022-11-26T20:48:32.957Z,7.85
2022-11-26T20:51:03.927Z,7.78
2022-11-26T20:53:31.010Z,7.71
2022-11-26T20:55:57.991Z,7.72
2022-11-26T20:58:25.405Z,7.74
2022-11-26T21:00:54.278Z,7.70
2022-11-26T21:03:25.142Z,7.80
2022-11-26T21:05:52.312Z,7.64
2022-11-26T21:08:19.694Z,7.79
2022-11-26T21:10:46.713Z,7.76
2022-11-26T21:13:14.830Z,7.85
2022-11-26T21:15:42.422Z,7.74
2022-11-26T21:18:09.475Z,7.81
2022-11-26T21:20:43.498Z,7.70
2022-11-26T21:23:10.767Z,7.78
2022-11-26T21:25:41.677Z,7.78
2022-11-26T21:28:08.798Z,7.65
2022-11-26T21:30:35.848Z,7.71
2022-11-26T21:33:08.777Z,7.68
2022-11-26T21:35:36.741Z,7.78
2022-11-26T21:38:03.849Z,7.83
2022-11-26T21:40:30.879Z,7.67
2022-11-26T21:42:57.848Z,7.63
2022-11-26T21:45:25.306Z,7.70
2022-11-26T21:47:52.376Z,7.78
2022-11-26T21:50:19.542Z,7.65
2022-11-26T21:52:46.552Z,7.65
2022-11-26T21:55:13.520Z,7.60
2022-11-26T21:57:40.605Z,7.62
2022-11-26T22:00:08.646Z,7.59
2022-11-26T22:02:35.924Z,7.58
2022-11-26T22:05:02.988Z,7.71
2022-11-26T22:07:30.737Z,7.58
2022-11-26T22:09:57.861Z,7.54
2022-11-26T22:12:24.861Z,7.57
2022-11-26T22:14:54.304Z,7.62
2022-11-26T22:17:21.284Z,7.52
2022-11-26T22:19:48.489Z,7.46
2022-11-26T22:22:15.446Z,7.62
2022-11-26T22:24:42.465Z,7.51
2022-11-26T22:27:09.514Z,7.60
2022-11-26T22:29:36.656Z,7.55
2022-11-26T22:32:03.751Z,7.53
2022-11-26T22:34:31.006Z,7.47
2022-11-26T22:36:58.160Z,7.54
2022-11-26T22:39:25.135Z,7.43
2022-11-26T22:41:52.324Z,7.58
2022-11-26T22:44:19.364Z,7.49
2022-11-26T22:46:46.500Z,7.44
2022-11-26T22:49:15.811Z,7.45
2022-11-26T22:51:42.996Z,7.58
2022-11-26T22:54:11.180Z,7.47
2022-11-26T22:56:38.475Z,7.54
2022-11-26T22:59:06.296Z,7.38
2022-11-26T23:01:34.277Z,7.51
2022-11-26T23:04:02.344Z,7.47
2022-11-26T23:06:30.253Z,7.58
2022-11-26T23:08:58.401Z,7.46
2022-11-26T23:11:31.426Z,7.43
2022-11-26T23:13:58.592Z,7.39
2022-11-26T23:16:26.249Z,7.54
2022-11-26T23:18:54.139Z,7.44
2022-11-26T23:21:24.935Z,7.58
2022-11-26T23:23:52.153Z,7.46
2022-11-26T23:26:27.162Z,7.44
2022-11-26T23:28:55.265Z,7.36
2022-11-26T23:31:23.953Z,7.54
2022-11-26T23:33:51.051Z,7.34
2022-11-26T23:36:18.166Z,7.48
2022-11-26T23:38:45.162Z,7.51
2022-11-26T23:41:12.176Z,7.40
2022-11-26T23:43:39.693Z,7.37
2022-11-26T23:46:20.839Z,7.37
2022-11-26T23:48:48.106Z,7.34
2022-11-26T23:51:21.700Z,7.39
2022-11-26T23:53:48.866Z,7.28
2022-11-26T23:56:20.784Z,7.21
2022-11-26T23:58:56.404Z,7.30
